sensor_id;sensor_type;location;lat;lon;timestamp;temperature;humidity
21163;DHT22;10739;52.198;20.908;2024-02-28T00:02:01;10.70;99.90
21163;DHT22;10739;52.198;20.908;2024-02-28T00:04:27;10.60;99.90
21163;DHT22;10739;52.198;20.908;2024-02-28T00:06:53;10.60;99.90
21163;DHT22;10739;52.198;20.908;2024-02-28T00:09:19;10.60;99.90
21163;DHT22;10739;52.198;20.908;2024-02-28T00:11:46;10.60;99.90
21163;DHT22;10739;52.198;20.908;2024-02-28T00:14:13;10.50;99.90
21163;DHT22;10739;52.198;20.908;2024-02-28T00:16:45;10.50;99.90
21163;DHT22;10739;52.198;20.908;2024-02-28T00:19:12;10.70;99.90
21163;DHT22;10739;52.198;20.908;2024-02-28T00:21:41;10.60;99.90
21163;DHT22;10739;52.198;20.908;2024-02-28T00:24:08;10.60;99.90
21163;DHT22;10739;52.198;20.908;2024-02-28T00:26:34;10.60;99.90
21163;DHT22;10739;52.198;20.908;2024-02-28T00:29:01;10.60;99.90
21163;DHT22;10739;52.198;20.908;2024-02-28T00:31:27;10.60;99.90
21163;DHT22;10739;52.198;20.908;2024-02-28T00:33:53;10.50;99.90
21163;DHT22;10739;52.198;20.908;2024-02-28T00:36:19;10.50;99.90
21163;DHT22;10739;52.198;20.908;2024-02-28T00:38:45;10.50;99.90
21163;DHT22;10739;52.198;20.908;2024-02-28T00:41:11;10.50;99.90
21163;DHT22;10739;52.198;20.908;2024-02-28T00:43:38;10.50;99.90
21163;DHT22;10739;52.198;20.908;2024-02-28T00:46:04;10.40;99.90
21163;DHT22;10739;52.198;20.908;2024-02-28T00:48:30;10.50;99.90
21163;DHT22;10739;52.198;20.908;2024-02-28T00:50:56;10.50;99.90
21163;DHT22;10739;52.198;20.908;2024-02-28T00:53:22;10.50;99.90
21163;DHT22;10739;52.198;20.908;2024-02-28T00:55:49;10.40;99.90
21163;DHT22;10739;52.198;20.908;2024-02-28T00:58:17;10.40;99.90
21163;DHT22;10739;52.198;20.908;2024-02-28T01:00:43;10.50;99.90
21163;DHT22;10739;52.198;20.908;2024-02-28T01:03:09;10.50;99.90
21163;DHT22;10739;52.198;20.908;2024-02-28T01:05:37;10.50;99.90
21163;DHT22;10739;52.198;20.908;2024-02-28T01:08:03;10.50;99.90
21163;DHT22;10739;52.198;20.908;2024-02-28T01:10:29;10.40;99.90
21163;DHT22;10739;52.198;20.908;2024-02-28T01:12:56;10.50;99.90
21163;DHT22;10739;52.198;20.908;2024-02-28T01:15:22;10.40;99.90
21163;DHT22;10739;52.198;20.908;2024-02-28T01:17:48;10.40;99.90
21163;DHT22;10739;52.198;20.908;2024-02-28T01:20:14;10.40;99.90
21163;DHT22;10739;52.198;20.908;2024-02-28T01:22:40;10.40;99.90
21163;DHT22;10739;52.198;20.908;2024-02-28T01:25:06;10.40;99.90
21163;DHT22;10739;52.198;20.908;2024-02-28T01:27:32;10.40;99.90
21163;DHT22;10739;52.198;20.908;2024-02-28T01:29:58;10.40;99.90
21163;DHT22;10739;52.198;20.908;2024-02-28T01:32:25;10.40;99.90
21163;DHT22;10739;52.198;20.908;2024-02-28T01:34:51;10.30;99.90
21163;DHT22;10739;52.198;20.908;2024-02-28T01:37:17;10.30;99.90
21163;DHT22;10739;52.198;20.908;2024-02-28T01:39:43;10.20;99.90
21163;DHT22;10739;52.198;20.908;2024-02-28T01:42:09;10.20;99.90
21163;DHT22;10739;52.198;20.908;2024-02-28T01:44:43;10.20;99.90
21163;DHT22;10739;52.198;20.908;2024-02-28T01:47:12;10.30;99.90
21163;DHT22;10739;52.198;20.908;2024-02-28T01:49:39;10.20;99.90
21163;DHT22;10739;52.198;20.908;2024-02-28T01:52:07;10.10;99.90
21163;DHT22;10739;52.198;20.908;2024-02-28T01:54:35;10.10;99.90
21163;DHT22;10739;52.198;20.908;2024-02-28T01:57:02;10.10;99.90
21163;DHT22;10739;52.198;20.908;2024-02-28T01:59:29;10.10;99.90
21163;DHT22;10739;52.198;20.908;2024-02-28T02:01:57;10.10;99.90
21163;DHT22;10739;52.198;20.908;2024-02-28T02:04:23;10.10;99.90
21163;DHT22;10739;52.198;20.908;2024-02-28T02:06:49;10.10;99.90
21163;DHT22;10739;52.198;20.908;2024-02-28T02:09:17;10.10;99.90
21163;DHT22;10739;52.198;20.908;2024-02-28T02:11:43;10.10;99.90
21163;DHT22;10739;52.198;20.908;2024-02-28T02:14:10;10.00;99.90
21163;DHT22;10739;52.198;20.908;2024-02-28T02:16:37;10.00;99.90
21163;DHT22;10739;52.198;20.908;2024-02-28T02:19:03;9.90;99.90
21163;DHT22;10739;52.198;20.908;2024-02-28T02:21:37;9.80;99.90
21163;DHT22;10739;52.198;20.908;2024-02-28T02:24:14;9.70;99.90
21163;DHT22;10739;52.198;20.908;2024-02-28T02:26:40;9.70;99.90
21163;DHT22;10739;52.198;20.908;2024-02-28T02:29:06;9.60;99.90
21163;DHT22;10739;52.198;20.908;2024-02-28T02:31:34;9.50;99.90
21163;DHT22;10739;52.198;20.908;2024-02-28T02:34:00;9.40;99.90
21163;DHT22;10739;52.198;20.908;2024-02-28T02:36:27;9.40;99.90
21163;DHT22;10739;52.198;20.908;2024-02-28T02:38:53;9.40;99.90
21163;DHT22;10739;52.198;20.908;2024-02-28T02:41:19;9.50;99.90
21163;DHT22;10739;52.198;20.908;2024-02-28T02:43:45;9.50;99.90
21163;DHT22;10739;52.198;20.908;2024-02-28T02:46:11;9.50;99.90
21163;DHT22;10739;52.198;20.908;2024-02-28T02:48:37;9.50;99.90
21163;DHT22;10739;52.198;20.908;2024-02-28T02:51:04;9.50;99.90
21163;DHT22;10739;52.198;20.908;2024-02-28T02:53:30;9.50;99.90
21163;DHT22;10739;52.198;20.908;2024-02-28T02:55:56;9.50;99.90
21163;DHT22;10739;52.198;20.908;2024-02-28T02:58:22;9.50;99.90
21163;DHT22;10739;52.198;20.908;2024-02-28T03:00:49;9.50;99.90
21163;DHT22;10739;52.198;20.908;2024-02-28T03:03:15;9.50;99.90
21163;DHT22;10739;52.198;20.908;2024-02-28T03:05:41;9.40;99.90
21163;DHT22;10739;52.198;20.908;2024-02-28T03:08:07;9.40;99.90
21163;DHT22;10739;52.198;20.908;2024-02-28T03:10:33;9.40;99.90
21163;DHT22;10739;52.198;20.908;2024-02-28T03:13:00;9.40;99.90
21163;DHT22;10739;52.198;20.908;2024-02-28T03:15:27;9.50;99.90
21163;DHT22;10739;52.198;20.908;2024-02-28T03:17:53;9.50;99.90
21163;DHT22;10739;52.198;20.908;2024-02-28T03:20:19;9.60;99.90
21163;DHT22;10739;52.198;20.908;2024-02-28T03:22:46;9.60;99.90
21163;DHT22;10739;52.198;20.908;2024-02-28T03:25:12;9.60;99.90
21163;DHT22;10739;52.198;20.908;2024-02-28T03:27:39;9.60;99.90
21163;DHT22;10739;52.198;20.908;2024-02-28T03:30:05;9.60;99.90
21163;DHT22;10739;52.198;20.908;2024-02-28T03:32:32;9.60;99.90
21163;DHT22;10739;52.198;20.908;2024-02-28T03:34:58;9.60;99.90
21163;DHT22;10739;52.198;20.908;2024-02-28T03:37:24;9.60;99.90
21163;DHT22;10739;52.198;20.908;2024-02-28T03:39:50;9.60;99.90
21163;DHT22;10739;52.198;20.908;2024-02-28T03:42:17;9.60;99.90
21163;DHT22;10739;52.198;20.908;2024-02-28T03:44:43;9.60;99.90
21163;DHT22;10739;52.198;20.908;2024-02-28T03:47:09;9.50;99.90
21163;DHT22;10739;52.198;20.908;2024-02-28T03:49:35;9.50;99.90
21163;DHT22;10739;52.198;20.908;2024-02-28T03:52:01;9.50;99.90
21163;DHT22;10739;52.198;20.908;2024-02-28T03:54:27;9.60;99.90
21163;DHT22;10739;52.198;20.908;2024-02-28T03:56:53;9.60;99.90
21163;DHT22;10739;52.198;20.908;2024-02-28T03:59:20;9.60;99.90
21163;DHT22;10739;52.198;20.908;2024-02-28T04:01:46;9.60;99.90
21163;DHT22;10739;52.198;20.908;2024-02-28T04:04:12;9.60;99.90
21163;DHT22;10739;52.198;20.908;2024-02-28T04:06:38;9.60;99.90
21163;DHT22;10739;52.198;20.908;2024-02-28T04:09:04;9.60;99.90
21163;DHT22;10739;52.198;20.908;2024-02-28T04:11:30;9.60;99.90
21163;DHT22;10739;52.198;20.908;2024-02-28T04:13:56;9.60;99.90
21163;DHT22;10739;52.198;20.908;2024-02-28T04:16:22;9.60;99.90
21163;DHT22;10739;52.198;20.908;2024-02-28T04:18:49;9.60;99.90
21163;DHT22;10739;52.198;20.908;2024-02-28T04:21:15;9.60;99.90
21163;DHT22;10739;52.198;20.908;2024-02-28T04:23:41;9.60;99.90
21163;DHT22;10739;52.198;20.908;2024-02-28T04:26:07;9.60;99.90
21163;DHT22;10739;52.198;20.908;2024-02-28T04:28:33;9.60;99.90
21163;DHT22;10739;52.198;20.908;2024-02-28T04:30:59;9.60;99.90
21163;DHT22;10739;52.198;20.908;2024-02-28T04:33:25;9.60;99.90
21163;DHT22;10739;52.198;20.908;2024-02-28T04:35:51;9.70;99.90
21163;DHT22;10739;52.198;20.908;2024-02-28T04:38:18;9.60;99.90
21163;DHT22;10739;52.198;20.908;2024-02-28T04:40:44;9.60;99.90
21163;DHT22;10739;52.198;20.908;2024-02-28T04:43:10;9.60;99.90
21163;DHT22;10739;52.198;20.908;2024-02-28T04:45:36;9.50;99.90
21163;DHT22;10739;52.198;20.908;2024-02-28T04:48:03;9.50;99.90
21163;DHT22;10739;52.198;20.908;2024-02-28T04:50:29;9.50;99.90
21163;DHT22;10739;52.198;20.908;2024-02-28T04:52:56;9.70;99.90
21163;DHT22;10739;52.198;20.908;2024-02-28T04:55:22;9.70;99.90
21163;DHT22;10739;52.198;20.908;2024-02-28T04:57:48;9.70;99.90
21163;DHT22;10739;52.198;20.908;2024-02-28T05:00:14;9.70;99.90
21163;DHT22;10739;52.198;20.908;2024-02-28T05:02:40;9.60;99.90
21163;DHT22;10739;52.198;20.908;2024-02-28T05:05:06;9.60;99.90
21163;DHT22;10739;52.198;20.908;2024-02-28T05:07:33;9.60;99.90
21163;DHT22;10739;52.198;20.908;2024-02-28T05:09:59;9.60;99.90
21163;DHT22;10739;52.198;20.908;2024-02-28T05:12:26;9.60;99.90
21163;DHT22;10739;52.198;20.908;2024-02-28T05:14:52;9.60;99.90
21163;DHT22;10739;52.198;20.908;2024-02-28T05:17:18;9.60;99.90
21163;DHT22;10739;52.198;20.908;2024-02-28T05:19:44;9.60;99.90
21163;DHT22;10739;52.198;20.908;2024-02-28T05:22:10;9.60;99.90
21163;DHT22;10739;52.198;20.908;2024-02-28T05:24:37;9.50;99.90
21163;DHT22;10739;52.198;20.908;2024-02-28T05:27:03;9.50;99.90
21163;DHT22;10739;52.198;20.908;2024-02-28T05:29:29;9.40;99.90
21163;DHT22;10739;52.198;20.908;2024-02-28T05:31:55;9.40;99.90
21163;DHT22;10739;52.198;20.908;2024-02-28T05:34:22;9.40;99.90
21163;DHT22;10739;52.198;20.908;2024-02-28T05:36:48;9.50;99.90
21163;DHT22;10739;52.198;20.908;2024-02-28T05:39:16;9.60;99.90
21163;DHT22;10739;52.198;20.908;2024-02-28T05:41:42;9.40;99.90
21163;DHT22;10739;52.198;20.908;2024-02-28T05:44:08;9.50;99.90
21163;DHT22;10739;52.198;20.908;2024-02-28T05:46:34;9.40;99.90
21163;DHT22;10739;52.198;20.908;2024-02-28T05:49:03;9.50;99.90
21163;DHT22;10739;52.198;20.908;2024-02-28T05:51:30;9.40;99.90
21163;DHT22;10739;52.198;20.908;2024-02-28T05:53:56;9.40;99.90
21163;DHT22;10739;52.198;20.908;2024-02-28T05:56:22;9.40;99.90
21163;DHT22;10739;52.198;20.908;2024-02-28T05:58:48;9.30;99.90
21163;DHT22;10739;52.198;20.908;2024-02-28T06:01:17;9.30;99.90
21163;DHT22;10739;52.198;20.908;2024-02-28T06:03:50;9.30;99.90
21163;DHT22;10739;52.198;20.908;2024-02-28T06:06:17;9.40;99.90
21163;DHT22;10739;52.198;20.908;2024-02-28T06:08:43;9.40;99.90
21163;DHT22;10739;52.198;20.908;2024-02-28T06:11:10;9.50;99.90
21163;DHT22;10739;52.198;20.908;2024-02-28T06:13:36;9.50;99.90
21163;DHT22;10739;52.198;20.908;2024-02-28T06:16:03;9.60;99.90
21163;DHT22;10739;52.198;20.908;2024-02-28T06:18:29;9.60;99.90
21163;DHT22;10739;52.198;20.908;2024-02-28T06:21:00;9.60;99.90
21163;DHT22;10739;52.198;20.908;2024-02-28T06:23:26;9.60;99.90
21163;DHT22;10739;52.198;20.908;2024-02-28T06:25:53;9.50;99.90
21163;DHT22;10739;52.198;20.908;2024-02-28T06:28:19;9.40;99.90
21163;DHT22;10739;52.198;20.908;2024-02-28T06:30:46;9.40;99.90
21163;DHT22;10739;52.198;20.908;2024-02-28T06:33:15;9.50;99.90
21163;DHT22;10739;52.198;20.908;2024-02-28T06:35:41;9.50;99.90
21163;DHT22;10739;52.198;20.908;2024-02-28T06:38:08;9.50;99.90
21163;DHT22;10739;52.198;20.908;2024-02-28T06:40:34;9.40;99.90
21163;DHT22;10739;52.198;20.908;2024-02-28T06:43:01;9.50;99.90
21163;DHT22;10739;52.198;20.908;2024-02-28T06:45:27;9.60;99.90
21163;DHT22;10739;52.198;20.908;2024-02-28T06:47:53;9.60;99.90
21163;DHT22;10739;52.198;20.908;2024-02-28T06:50:19;9.60;99.90
21163;DHT22;10739;52.198;20.908;2024-02-28T06:52:46;9.60;99.90
21163;DHT22;10739;52.198;20.908;2024-02-28T06:55:12;9.60;99.90
21163;DHT22;10739;52.198;20.908;2024-02-28T06:57:41;9.70;99.90
21163;DHT22;10739;52.198;20.908;2024-02-28T07:00:09;9.70;99.90
21163;DHT22;10739;52.198;20.908;2024-02-28T07:02:40;9.80;99.90
21163;DHT22;10739;52.198;20.908;2024-02-28T07:05:07;9.80;99.90
21163;DHT22;10739;52.198;20.908;2024-02-28T07:07:33;9.80;99.90
21163;DHT22;10739;52.198;20.908;2024-02-28T07:10:01;11.50;99.90
21163;DHT22;10739;52.198;20.908;2024-02-28T07:12:28;9.80;99.90
21163;DHT22;10739;52.198;20.908;2024-02-28T07:14:55;9.90;99.90
21163;DHT22;10739;52.198;20.908;2024-02-28T07:17:21;9.90;99.90
21163;DHT22;10739;52.198;20.908;2024-02-28T07:19:48;9.60;99.90
21163;DHT22;10739;52.198;20.908;2024-02-28T07:22:14;9.90;99.90
21163;DHT22;10739;52.198;20.908;2024-02-28T07:24:40;9.90;99.90
21163;DHT22;10739;52.198;20.908;2024-02-28T07:27:07;9.90;99.90
21163;DHT22;10739;52.198;20.908;2024-02-28T07:29:33;10.00;99.90
21163;DHT22;10739;52.198;20.908;2024-02-28T07:31:59;10.00;99.90
21163;DHT22;10739;52.198;20.908;2024-02-28T07:34:28;10.10;99.90
21163;DHT22;10739;52.198;20.908;2024-02-28T07:36:54;10.10;99.90
21163;DHT22;10739;52.198;20.908;2024-02-28T07:39:20;10.10;99.90
21163;DHT22;10739;52.198;20.908;2024-02-28T07:41:46;10.20;99.90
21163;DHT22;10739;52.198;20.908;2024-02-28T07:44:12;10.30;99.90
21163;DHT22;10739;52.198;20.908;2024-02-28T07:46:41;10.40;99.90
21163;DHT22;10739;52.198;20.908;2024-02-28T07:49:07;10.50;99.90
21163;DHT22;10739;52.198;20.908;2024-02-28T07:51:33;10.70;99.90
21163;DHT22;10739;52.198;20.908;2024-02-28T07:53:59;10.70;99.90
21163;DHT22;10739;52.198;20.908;2024-02-28T07:56:25;10.70;99.90
21163;DHT22;10739;52.198;20.908;2024-02-28T07:58:52;10.80;99.90
21163;DHT22;10739;52.198;20.908;2024-02-28T08:01:18;10.80;99.90
21163;DHT22;10739;52.198;20.908;2024-02-28T08:03:44;10.70;99.90
21163;DHT22;10739;52.198;20.908;2024-02-28T08:06:11;10.80;99.90
21163;DHT22;10739;52.198;20.908;2024-02-28T08:08:37;10.70;99.90
21163;DHT22;10739;52.198;20.908;2024-02-28T08:11:03;10.70;99.90
21163;DHT22;10739;52.198;20.908;2024-02-28T08:13:30;10.70;99.90
21163;DHT22;10739;52.198;20.908;2024-02-28T08:15:58;10.60;99.90
21163;DHT22;10739;52.198;20.908;2024-02-28T08:18:25;10.50;99.90
21163;DHT22;10739;52.198;20.908;2024-02-28T08:20:52;10.60;99.90
21163;DHT22;10739;52.198;20.908;2024-02-28T08:23:18;10.60;99.90
21163;DHT22;10739;52.198;20.908;2024-02-28T08:25:44;10.60;99.90
21163;DHT22;10739;52.198;20.908;2024-02-28T08:28:10;10.50;99.90
21163;DHT22;10739;52.198;20.908;2024-02-28T08:30:37;10.50;99.90
21163;DHT22;10739;52.198;20.908;2024-02-28T08:33:03;10.50;99.90
21163;DHT22;10739;52.198;20.908;2024-02-28T08:35:29;10.50;99.90
21163;DHT22;10739;52.198;20.908;2024-02-28T08:37:56;10.50;99.90
21163;DHT22;10739;52.198;20.908;2024-02-28T08:40:22;10.50;99.90
21163;DHT22;10739;52.198;20.908;2024-02-28T08:42:48;10.50;99.90
21163;DHT22;10739;52.198;20.908;2024-02-28T08:45:18;10.50;99.90
21163;DHT22;10739;52.198;20.908;2024-02-28T08:47:44;10.60;99.90
21163;DHT22;10739;52.198;20.908;2024-02-28T08:50:10;10.60;99.90
21163;DHT22;10739;52.198;20.908;2024-02-28T08:52:36;10.60;99.90
21163;DHT22;10739;52.198;20.908;2024-02-28T08:55:03;10.70;99.90
21163;DHT22;10739;52.198;20.908;2024-02-28T08:57:29;10.60;99.90
21163;DHT22;10739;52.198;20.908;2024-02-28T08:59:55;10.70;99.90
21163;DHT22;10739;52.198;20.908;2024-02-28T09:02:22;10.70;99.90
21163;DHT22;10739;52.198;20.908;2024-02-28T09:04:48;10.80;99.90
21163;DHT22;10739;52.198;20.908;2024-02-28T09:07:18;10.90;99.90
21163;DHT22;10739;52.198;20.908;2024-02-28T09:09:47;10.90;99.90
21163;DHT22;10739;52.198;20.908;2024-02-28T09:12:13;11.00;99.90
21163;DHT22;10739;52.198;20.908;2024-02-28T09:14:40;11.00;99.90
21163;DHT22;10739;52.198;20.908;2024-02-28T09:17:06;11.10;99.90
21163;DHT22;10739;52.198;20.908;2024-02-28T09:19:32;11.10;99.90
21163;DHT22;10739;52.198;20.908;2024-02-28T09:21:59;11.10;99.90
21163;DHT22;10739;52.198;20.908;2024-02-28T09:24:26;11.20;99.90
21163;DHT22;10739;52.198;20.908;2024-02-28T09:26:53;11.20;99.90
21163;DHT22;10739;52.198;20.908;2024-02-28T09:29:19;11.20;99.90
21163;DHT22;10739;52.198;20.908;2024-02-28T09:31:45;11.20;99.90
21163;DHT22;10739;52.198;20.908;2024-02-28T09:34:11;11.20;99.90
21163;DHT22;10739;52.198;20.908;2024-02-28T09:36:45;11.20;99.90
21163;DHT22;10739;52.198;20.908;2024-02-28T09:39:12;11.20;99.90
21163;DHT22;10739;52.198;20.908;2024-02-28T09:41:42;11.30;99.90
21163;DHT22;10739;52.198;20.908;2024-02-28T09:44:09;11.30;99.90
21163;DHT22;10739;52.198;20.908;2024-02-28T09:46:37;11.30;99.90
21163;DHT22;10739;52.198;20.908;2024-02-28T09:49:07;11.30;99.90
21163;DHT22;10739;52.198;20.908;2024-02-28T09:51:35;11.30;99.90
21163;DHT22;10739;52.198;20.908;2024-02-28T09:54:05;11.30;99.90
21163;DHT22;10739;52.198;20.908;2024-02-28T09:56:32;11.30;99.90
21163;DHT22;10739;52.198;20.908;2024-02-28T09:58:59;11.30;99.90
21163;DHT22;10739;52.198;20.908;2024-02-28T10:01:28;11.30;99.90
21163;DHT22;10739;52.198;20.908;2024-02-28T10:03:59;11.30;99.90
21163;DHT22;10739;52.198;20.908;2024-02-28T10:06:27;11.30;99.90
21163;DHT22;10739;52.198;20.908;2024-02-28T10:08:54;11.30;99.90
21163;DHT22;10739;52.198;20.908;2024-02-28T10:11:21;11.20;99.90
21163;DHT22;10739;52.198;20.908;2024-02-28T10:13:48;11.20;99.90
21163;DHT22;10739;52.198;20.908;2024-02-28T10:16:15;11.20;99.90
21163;DHT22;10739;52.198;20.908;2024-02-28T10:18:44;11.20;99.90
21163;DHT22;10739;52.198;20.908;2024-02-28T10:21:12;11.30;99.90
21163;DHT22;10739;52.198;20.908;2024-02-28T10:23:41;11.30;99.90
21163;DHT22;10739;52.198;20.908;2024-02-28T10:26:11;11.20;99.90
21163;DHT22;10739;52.198;20.908;2024-02-28T10:28:39;11.20;99.90
21163;DHT22;10739;52.198;20.908;2024-02-28T10:31:06;11.20;99.90
21163;DHT22;10739;52.198;20.908;2024-02-28T10:33:33;11.20;99.90
21163;DHT22;10739;52.198;20.908;2024-02-28T10:36:02;11.20;99.90
21163;DHT22;10739;52.198;20.908;2024-02-28T10:38:31;11.20;99.90
21163;DHT22;10739;52.198;20.908;2024-02-28T10:41:04;11.30;99.90
21163;DHT22;10739;52.198;20.908;2024-02-28T10:43:31;11.30;99.90
21163;DHT22;10739;52.198;20.908;2024-02-28T10:46:00;11.30;99.90
21163;DHT22;10739;52.198;20.908;2024-02-28T10:48:27;11.30;99.90
21163;DHT22;10739;52.198;20.908;2024-02-28T10:50:53;11.30;99.90
21163;DHT22;10739;52.198;20.908;2024-02-28T10:53:22;11.30;99.90
21163;DHT22;10739;52.198;20.908;2024-02-28T10:55:55;11.30;99.90
21163;DHT22;10739;52.198;20.908;2024-02-28T10:58:40;11.30;99.90
21163;DHT22;10739;52.198;20.908;2024-02-28T11:01:18;11.30;99.90
21163;DHT22;10739;52.198;20.908;2024-02-28T11:03:45;11.30;99.90
21163;DHT22;10739;52.198;20.908;2024-02-28T11:06:20;11.30;99.90
21163;DHT22;10739;52.198;20.908;2024-02-28T11:08:48;11.30;99.90
21163;DHT22;10739;52.198;20.908;2024-02-28T11:11:18;11.30;99.90
21163;DHT22;10739;52.198;20.908;2024-02-28T11:13:55;11.30;99.90
21163;DHT22;10739;52.198;20.908;2024-02-28T11:16:32;11.30;99.90
21163;DHT22;10739;52.198;20.908;2024-02-28T11:19:00;11.30;99.90
21163;DHT22;10739;52.198;20.908;2024-02-28T11:21:28;11.30;99.90
21163;DHT22;10739;52.198;20.908;2024-02-28T11:23:59;11.40;99.90
21163;DHT22;10739;52.198;20.908;2024-02-28T11:26:26;11.40;99.90
21163;DHT22;10739;52.198;20.908;2024-02-28T11:28:56;11.50;99.90
21163;DHT22;10739;52.198;20.908;2024-02-28T11:31:22;11.50;99.90
21163;DHT22;10739;52.198;20.908;2024-02-28T11:33:48;11.40;99.90
21163;DHT22;10739;52.198;20.908;2024-02-28T11:36:15;11.40;99.90
21163;DHT22;10739;52.198;20.908;2024-02-28T11:38:41;11.40;99.90
21163;DHT22;10739;52.198;20.908;2024-02-28T11:41:07;11.40;99.90
21163;DHT22;10739;52.198;20.908;2024-02-28T11:43:34;11.40;99.90
21163;DHT22;10739;52.198;20.908;2024-02-28T11:46:01;11.40;99.90
21163;DHT22;10739;52.198;20.908;2024-02-28T11:48:34;11.30;99.90
21163;DHT22;10739;52.198;20.908;2024-02-28T11:51:00;11.30;99.90
21163;DHT22;10739;52.198;20.908;2024-02-28T11:53:26;11.20;99.90
21163;DHT22;10739;52.198;20.908;2024-02-28T11:55:53;11.10;99.90
21163;DHT22;10739;52.198;20.908;2024-02-28T11:58:21;10.90;99.90
21163;DHT22;10739;52.198;20.908;2024-02-28T12:00:49;10.80;99.90
21163;DHT22;10739;52.198;20.908;2024-02-28T12:03:25;10.60;99.90
21163;DHT22;10739;52.198;20.908;2024-02-28T12:05:55;10.40;99.90
21163;DHT22;10739;52.198;20.908;2024-02-28T12:08:22;10.30;99.90
21163;DHT22;10739;52.198;20.908;2024-02-28T12:10:48;10.30;99.90
21163;DHT22;10739;52.198;20.908;2024-02-28T12:13:17;10.20;99.90
21163;DHT22;10739;52.198;20.908;2024-02-28T12:15:44;10.10;99.90
21163;DHT22;10739;52.198;20.908;2024-02-28T12:18:11;10.10;99.90
21163;DHT22;10739;52.198;20.908;2024-02-28T12:20:40;10.10;99.90
21163;DHT22;10739;52.198;20.908;2024-02-28T12:23:06;10.10;99.90
21163;DHT22;10739;52.198;20.908;2024-02-28T12:25:34;10.00;99.90
21163;DHT22;10739;52.198;20.908;2024-02-28T12:28:05;9.90;99.90
21163;DHT22;10739;52.198;20.908;2024-02-28T12:30:40;9.90;99.90
21163;DHT22;10739;52.198;20.908;2024-02-28T12:33:11;9.90;99.90
21163;DHT22;10739;52.198;20.908;2024-02-28T12:35:37;9.90;99.90
21163;DHT22;10739;52.198;20.908;2024-02-28T12:38:03;9.90;99.90
21163;DHT22;10739;52.198;20.908;2024-02-28T12:40:30;9.90;99.90
21163;DHT22;10739;52.198;20.908;2024-02-28T12:42:56;9.90;99.90
21163;DHT22;10739;52.198;20.908;2024-02-28T12:45:22;9.80;99.90
21163;DHT22;10739;52.198;20.908;2024-02-28T12:47:48;9.80;99.90
21163;DHT22;10739;52.198;20.908;2024-02-28T12:50:14;9.70;99.90
21163;DHT22;10739;52.198;20.908;2024-02-28T12:52:40;9.60;99.90
21163;DHT22;10739;52.198;20.908;2024-02-28T12:55:07;9.60;99.90
21163;DHT22;10739;52.198;20.908;2024-02-28T12:57:33;9.60;99.90
21163;DHT22;10739;52.198;20.908;2024-02-28T12:59:59;9.50;99.90
21163;DHT22;10739;52.198;20.908;2024-02-28T13:02:25;9.50;99.90
21163;DHT22;10739;52.198;20.908;2024-02-28T13:04:51;9.50;99.90
21163;DHT22;10739;52.198;20.908;2024-02-28T13:07:18;9.40;99.90
21163;DHT22;10739;52.198;20.908;2024-02-28T13:09:47;9.40;99.90
21163;DHT22;10739;52.198;20.908;2024-02-28T13:12:13;9.40;99.90
21163;DHT22;10739;52.198;20.908;2024-02-28T13:14:39;9.30;99.90
21163;DHT22;10739;52.198;20.908;2024-02-28T13:17:05;9.30;99.90
21163;DHT22;10739;52.198;20.908;2024-02-28T13:19:31;9.30;99.90
21163;DHT22;10739;52.198;20.908;2024-02-28T13:21:58;9.30;99.90
21163;DHT22;10739;52.198;20.908;2024-02-28T13:24:24;9.30;99.90
21163;DHT22;10739;52.198;20.908;2024-02-28T13:26:50;9.30;99.90
21163;DHT22;10739;52.198;20.908;2024-02-28T13:29:16;9.30;99.90
21163;DHT22;10739;52.198;20.908;2024-02-28T13:31:42;9.20;99.90
21163;DHT22;10739;52.198;20.908;2024-02-28T13:34:08;9.30;99.90
21163;DHT22;10739;52.198;20.908;2024-02-28T13:36:34;9.30;99.90
21163;DHT22;10739;52.198;20.908;2024-02-28T13:39:02;9.30;99.90
21163;DHT22;10739;52.198;20.908;2024-02-28T13:41:29;9.30;99.90
21163;DHT22;10739;52.198;20.908;2024-02-28T13:43:55;9.30;99.90
21163;DHT22;10739;52.198;20.908;2024-02-28T13:46:21;9.30;99.90
21163;DHT22;10739;52.198;20.908;2024-02-28T13:48:47;9.20;99.90
21163;DHT22;10739;52.198;20.908;2024-02-28T13:51:13;9.20;99.90
21163;DHT22;10739;52.198;20.908;2024-02-28T13:53:40;9.20;99.90
21163;DHT22;10739;52.198;20.908;2024-02-28T13:56:07;9.20;99.90
21163;DHT22;10739;52.198;20.908;2024-02-28T13:58:33;9.10;99.90
21163;DHT22;10739;52.198;20.908;2024-02-28T14:00:59;9.00;99.90
21163;DHT22;10739;52.198;20.908;2024-02-28T14:03:25;8.90;99.90
21163;DHT22;10739;52.198;20.908;2024-02-28T14:05:52;8.90;99.90
21163;DHT22;10739;52.198;20.908;2024-02-28T14:08:18;8.80;99.90
21163;DHT22;10739;52.198;20.908;2024-02-28T14:10:44;8.80;99.90
21163;DHT22;10739;52.198;20.908;2024-02-28T14:13:10;8.80;99.90
21163;DHT22;10739;52.198;20.908;2024-02-28T14:15:38;8.80;99.90
21163;DHT22;10739;52.198;20.908;2024-02-28T14:18:04;8.80;99.90
21163;DHT22;10739;52.198;20.908;2024-02-28T14:20:31;8.70;99.90
21163;DHT22;10739;52.198;20.908;2024-02-28T14:22:57;8.70;99.90
21163;DHT22;10739;52.198;20.908;2024-02-28T14:25:23;8.70;99.90
21163;DHT22;10739;52.198;20.908;2024-02-28T14:27:50;8.70;99.90
21163;DHT22;10739;52.198;20.908;2024-02-28T14:30:16;8.80;99.90
21163;DHT22;10739;52.198;20.908;2024-02-28T14:32:43;8.80;99.90
21163;DHT22;10739;52.198;20.908;2024-02-28T14:35:10;8.70;99.90
21163;DHT22;10739;52.198;20.908;2024-02-28T14:37:38;8.70;99.90
21163;DHT22;10739;52.198;20.908;2024-02-28T14:40:08;8.70;99.90
21163;DHT22;10739;52.198;20.908;2024-02-28T14:42:39;8.70;99.90
21163;DHT22;10739;52.198;20.908;2024-02-28T14:45:10;8.70;99.90
21163;DHT22;10739;52.198;20.908;2024-02-28T14:47:38;8.70;99.90
21163;DHT22;10739;52.198;20.908;2024-02-28T14:50:05;8.70;99.90
21163;DHT22;10739;52.198;20.908;2024-02-28T14:52:36;8.70;99.90
21163;DHT22;10739;52.198;20.908;2024-02-28T14:55:04;8.70;99.90
21163;DHT22;10739;52.198;20.908;2024-02-28T14:57:33;8.70;99.90
21163;DHT22;10739;52.198;20.908;2024-02-28T14:59:59;8.70;99.90
21163;DHT22;10739;52.198;20.908;2024-02-28T15:02:26;8.70;99.90
21163;DHT22;10739;52.198;20.908;2024-02-28T15:04:52;8.70;99.90
21163;DHT22;10739;52.198;20.908;2024-02-28T15:07:18;8.70;99.90
21163;DHT22;10739;52.198;20.908;2024-02-28T15:09:45;8.70;99.90
21163;DHT22;10739;52.198;20.908;2024-02-28T15:12:12;8.80;99.90
21163;DHT22;10739;52.198;20.908;2024-02-28T15:14:39;8.80;99.90
21163;DHT22;10739;52.198;20.908;2024-02-28T15:17:05;8.80;99.90
21163;DHT22;10739;52.198;20.908;2024-02-28T15:19:31;8.80;99.90
21163;DHT22;10739;52.198;20.908;2024-02-28T15:21:58;8.80;99.90
21163;DHT22;10739;52.198;20.908;2024-02-28T15:24:25;8.80;99.90